Time;durP1;ratioP1;P1;durP2;ratioP2;P2;SDS_P1;SDS_P2;PMS_P1;PMS_P2;Temp;Humidity;BMP_temperature;BMP_pressure;BME280_temperature;BME280_humidity;BME280_pressure;Samples;Min_cycle;Max_cycle;Signal;HPM_P1;HPM_P2
2020/12/14 00:02:14;;;;;;;34.80;14.47;;;1.90;99.90;;;;;;4367472;32;20156;-70
2020/12/14 00:04:41;;;;;;;34.93;15.33;;;1.90;99.90;;;;;;4374353;32;20184;-70
2020/12/14 00:07:07;;;;;;;41.17;16.57;;;1.90;99.90;;;;;;4370516;32;20156;-71
2020/12/14 00:09:34;;;;;;;31.53;13.73;;;1.90;99.90;;;;;;4368918;32;20144;-71
2020/12/14 00:12:01;;;;;;;32.67;14.13;;;1.90;99.90;;;;;;4376626;32;20241;-71
2020/12/14 00:14:27;;;;;;;32.83;14.47;;;1.90;99.90;;;;;;4371763;32;20266;-72
2020/12/14 00:16:54;;;;;;;34.83;14.27;;;1.80;99.90;;;;;;4374309;32;20148;-71
2020/12/14 00:19:22;;;;;;;37.93;14.57;;;1.70;99.90;;;;;;4385016;32;20195;-71
2020/12/14 00:21:54;;;;;;;33.43;14.17;;;1.80;99.90;;;;;;4389526;32;20524;-71
2020/12/14 00:24:21;;;;;;;31.47;13.00;;;1.70;99.90;;;;;;4382379;32;20197;-71
2020/12/14 00:26:51;;;;;;;28.20;12.53;;;1.70;99.90;;;;;;4389853;32;20144;-71
2020/12/14 00:29:19;;;;;;;32.90;14.07;;;1.80;99.90;;;;;;4386451;32;20193;-71
2020/12/14 00:31:53;;;;;;;29.80;13.53;;;1.70;99.90;;;;;;4386117;32;20182;-71
2020/12/14 00:34:22;;;;;;;29.93;13.80;;;1.70;99.90;;;;;;4394954;32;20226;-71
2020/12/14 00:37:02;;;;;;;32.87;13.87;;;1.70;99.90;;;;;;4388054;32;20175;-71
2020/12/14 00:39:28;;;;;;;32.03;13.10;;;1.50;99.90;;;;;;4386904;32;20169;-71
2020/12/14 00:41:55;;;;;;;28.17;12.37;;;1.60;99.90;;;;;;4393117;32;20559;-71
2020/12/14 00:44:21;;;;;;;28.93;12.70;;;1.60;99.90;;;;;;4383691;32;20500;-70
2020/12/14 00:46:48;;;;;;;28.60;12.47;;;1.70;99.90;;;;;;4391255;32;20241;-71
2020/12/14 00:49:14;;;;;;;32.57;13.20;;;1.70;99.90;;;;;;4388755;32;20335;-71
2020/12/14 00:51:41;;;;;;;30.80;12.80;;;1.70;99.90;;;;;;4387141;32;20256;-71
2020/12/14 00:54:07;;;;;;;32.77;14.10;;;1.60;99.90;;;;;;4394588;32;20469;-72
2020/12/14 00:56:34;;;;;;;28.00;12.33;;;1.70;99.90;;;;;;4384421;32;20210;-70
2020/12/14 00:59:02;;;;;;;32.40;12.87;;;1.70;99.90;;;;;;4390998;32;20411;-71
2020/12/14 01:01:28;;;;;;;26.97;11.40;;;1.60;99.90;;;;;;4391525;32;20174;-71
2020/12/14 01:03:56;;;;;;;25.53;11.60;;;1.60;99.90;;;;;;4385304;32;20155;-70
2020/12/14 01:06:22;;;;;;;31.53;13.03;;;1.60;99.90;;;;;;4393110;32;20163;-71
2020/12/14 01:08:50;;;;;;;26.33;11.73;;;1.60;99.90;;;;;;4385930;32;20152;-71
2020/12/14 01:11:16;;;;;;;26.30;11.57;;;1.70;99.90;;;;;;4387064;32;20263;-72
2020/12/14 01:13:46;;;;;;;29.70;12.23;;;1.80;99.90;;;;;;4392833;32;20182;-71
2020/12/14 01:16:12;;;;;;;27.30;12.40;;;1.70;99.90;;;;;;4384572;32;20232;-72
2020/12/14 01:18:40;;;;;;;24.97;11.00;;;1.70;99.90;;;;;;4391258;32;20140;-72
2020/12/14 01:21:06;;;;;;;23.43;11.03;;;1.80;99.90;;;;;;4387434;32;20182;-71
2020/12/14 01:23:33;;;;;;;21.43;10.37;;;1.60;99.90;;;;;;4386574;32;20164;-71
2020/12/14 01:26:00;;;;;;;23.87;11.57;;;1.70;99.90;;;;;;4394375;32;20143;-72
2020/12/14 01:28:27;;;;;;;26.13;11.77;;;1.70;99.90;;;;;;4384974;32;20409;-71
2020/12/14 01:30:53;;;;;;;27.43;11.37;;;1.70;99.90;;;;;;4389976;32;20143;-71
2020/12/14 01:33:21;;;;;;;25.17;11.13;;;1.70;99.90;;;;;;4390345;32;20266;-71
2020/12/14 01:35:48;;;;;;;24.17;10.33;;;1.70;99.90;;;;;;4384892;32;20412;-71
2020/12/14 01:38:14;;;;;;;23.70;10.23;;;1.70;99.90;;;;;;4392245;32;20152;-71
2020/12/14 01:40:41;;;;;;;22.80;9.97;;;1.60;99.90;;;;;;4384313;32;20178;-72
2020/12/14 01:43:08;;;;;;;22.30;9.63;;;1.60;99.90;;;;;;4388126;32;20205;-71
2020/12/14 01:45:34;;;;;;;25.00;10.60;;;1.60;99.90;;;;;;4389970;32;20174;-70
2020/12/14 01:48:03;;;;;;;22.70;9.93;;;1.70;99.90;;;;;;4382696;32;20195;-70
2020/12/14 01:50:30;;;;;;;20.97;9.03;;;1.70;99.90;;;;;;4392393;32;20167;-70
2020/12/14 01:53:00;;;;;;;21.10;9.90;;;1.70;99.90;;;;;;4385984;32;20222;-70
2020/12/14 01:55:48;;;;;;;21.40;10.27;;;1.70;99.90;;;;;;4387540;32;20156;-71
2020/12/14 01:58:15;;;;;;;21.03;9.83;;;1.70;99.90;;;;;;4393896;32;20411;-71
2020/12/14 02:00:42;;;;;;;21.77;9.97;;;1.60;99.90;;;;;;4385297;32;20163;-71
2020/12/14 02:03:08;;;;;;;23.53;10.43;;;1.70;99.90;;;;;;4387850;32;20163;-71
2020/12/14 02:05:35;;;;;;;23.67;10.27;;;1.60;99.90;;;;;;4391019;32;20457;-70
2020/12/14 02:08:05;;;;;;;24.57;10.47;;;1.60;99.90;;;;;;4383479;32;20573;-72
2020/12/14 02:10:32;;;;;;;23.80;11.07;;;1.60;99.90;;;;;;4390748;32;20187;-71
2020/12/14 02:12:59;;;;;;;21.80;10.53;;;1.60;99.90;;;;;;4379598;32;20156;-71
2020/12/14 02:15:25;;;;;;;20.43;9.90;;;1.60;99.90;;;;;;4378237;32;20190;-70
2020/12/14 02:17:52;;;;;;;22.63;10.50;;;1.60;99.90;;;;;;4369488;32;20172;-71
2020/12/14 02:20:18;;;;;;;20.17;9.70;;;1.70;99.90;;;;;;4379250;32;20175;-70
2020/12/14 02:22:45;;;;;;;16.47;8.43;;;1.60;99.90;;;;;;4376507;32;20184;-71
2020/12/14 02:25:11;;;;;;;19.40;9.47;;;1.70;99.90;;;;;;4372138;32;20230;-70
2020/12/14 02:27:37;;;;;;;19.87;9.77;;;1.70;99.90;;;;;;4381108;32;20206;-70
2020/12/14 02:30:06;;;;;;;21.07;10.00;;;1.70;99.90;;;;;;4368110;32;20151;-70
2020/12/14 02:32:33;;;;;;;15.20;7.40;;;1.70;99.90;;;;;;4376166;32;20175;-70
2020/12/14 02:35:00;;;;;;;19.93;7.93;;;1.80;99.90;;;;;;4370653;32;20545;-71
2020/12/14 02:37:28;;;;;;;16.97;7.90;;;1.60;99.90;;;;;;4379465;32;20165;-70
2020/12/14 02:39:55;;;;;;;16.70;7.97;;;1.60;99.90;;;;;;4367207;32;20148;-72
2020/12/14 02:42:24;;;;;;;14.20;6.93;;;1.70;99.90;;;;;;4376765;32;20157;-71
2020/12/14 02:44:51;;;;;;;14.80;7.27;;;1.80;99.90;;;;;;4356247;32;20557;-71
2020/12/14 02:47:18;;;;;;;13.77;6.80;;;1.70;99.90;;;;;;4372789;32;20544;-72
2020/12/14 02:49:45;;;;;;;13.13;6.50;;;1.80;99.90;;;;;;4376591;32;20470;-71
2020/12/14 02:52:12;;;;;;;15.03;7.67;;;1.70;99.90;;;;;;4366830;32;20148;-72
2020/12/14 02:54:42;;;;;;;14.90;6.80;;;1.60;99.90;;;;;;4376150;32;20148;-71
2020/12/14 02:57:09;;;;;;;16.70;8.23;;;1.60;99.90;;;;;;4357907;32;20152;-72
2020/12/14 02:59:36;;;;;;;15.30;7.60;;;1.70;99.90;;;;;;4369376;32;20193;-71
2020/12/14 03:02:03;;;;;;;15.70;8.23;;;1.80;99.90;;;;;;4376813;32;20187;-72
2020/12/14 03:04:30;;;;;;;16.20;7.80;;;1.80;99.90;;;;;;4375912;32;20144;-71
2020/12/14 03:06:57;;;;;;;15.40;7.57;;;1.80;99.90;;;;;;4370070;32;20182;-70
2020/12/14 03:09:24;;;;;;;14.97;7.57;;;1.80;99.90;;;;;;4379116;32;20201;-71
2020/12/14 03:11:51;;;;;;;16.47;7.87;;;1.90;99.90;;;;;;4367645;32;20184;-70
2020/12/14 03:14:18;;;;;;;16.53;7.33;;;2.00;99.90;;;;;;4372671;32;20235;-71
2020/12/14 03:16:51;;;;;;;16.27;8.03;;;1.90;99.90;;;;;;4374719;32;20156;-70
2020/12/14 03:19:18;;;;;;;14.00;7.30;;;2.00;99.90;;;;;;4372169;32;20166;-70
2020/12/14 03:21:45;;;;;;;14.27;7.10;;;2.00;99.90;;;;;;4368094;32;20148;-70
2020/12/14 03:24:11;;;;;;;14.27;7.63;;;2.00;99.90;;;;;;4377509;32;20190;-70
2020/12/14 03:26:38;;;;;;;13.47;6.70;;;2.00;99.90;;;;;;4374915;32;20153;-71
2020/12/14 03:29:05;;;;;;;16.27;7.10;;;2.00;99.90;;;;;;4358092;32;20205;-71
2020/12/14 03:31:32;;;;;;;11.53;6.50;;;2.00;99.90;;;;;;4380367;32;20459;-71
2020/12/14 03:33:59;;;;;;;13.30;6.93;;;2.10;99.90;;;;;;4366479;32;20140;-71
2020/12/14 03:36:26;;;;;;;16.57;7.20;;;2.10;99.90;;;;;;4366471;32;20174;-73
2020/12/14 03:38:54;;;;;;;12.30;6.70;;;2.10;99.90;;;;;;4374837;32;20167;-71
2020/12/14 03:41:21;;;;;;;13.70;6.87;;;2.10;99.90;;;;;;4372099;32;20144;-71
2020/12/14 03:43:49;;;;;;;13.10;6.97;;;2.10;99.90;;;;;;4368608;32;20366;-71
2020/12/14 03:46:17;;;;;;;14.07;7.00;;;2.10;99.90;;;;;;4377690;32;20206;-71
2020/12/14 03:48:43;;;;;;;14.07;7.23;;;2.10;99.90;;;;;;4374122;32;20167;-71
2020/12/14 03:51:11;;;;;;;16.27;7.57;;;2.10;99.90;;;;;;4371268;32;20478;-70
2020/12/14 03:53:41;;;;;;;15.90;7.57;;;2.10;99.90;;;;;;4380171;32;20187;-70
2020/12/14 03:56:08;;;;;;;13.67;7.60;;;2.10;99.90;;;;;;4366136;32;20214;-71
2020/12/14 03:58:34;;;;;;;14.83;7.47;;;2.00;99.90;;;;;;4375068;32;20171;-74
2020/12/14 04:01:01;;;;;;;14.37;6.90;;;2.00;99.90;;;;;;4371979;32;20523;-70
2020/12/14 04:03:27;;;;;;;13.50;6.63;;;2.00;99.90;;;;;;4394697;32;20151;-69
2020/12/14 04:05:54;;;;;;;14.23;7.30;;;2.00;99.90;;;;;;4385830;32;20148;-71
2020/12/14 04:08:20;;;;;;;13.00;6.57;;;2.10;99.90;;;;;;4380138;32;20495;-71
2020/12/14 04:10:47;;;;;;;14.03;6.77;;;2.10;99.90;;;;;;4378041;32;20179;-71
2020/12/14 04:13:14;;;;;;;12.47;6.97;;;2.10;99.90;;;;;;4374050;32;20152;-72
2020/12/14 04:15:41;;;;;;;10.93;5.97;;;2.00;99.90;;;;;;4380912;32;20629;-71
2020/12/14 04:18:07;;;;;;;13.07;6.20;;;2.00;99.90;;;;;;4370323;32;20164;-71
2020/12/14 04:20:33;;;;;;;13.00;6.50;;;1.90;99.90;;;;;;4378068;32;20210;-72
2020/12/14 04:23:00;;;;;;;11.17;5.77;;;1.90;99.90;;;;;;4374139;32;20152;-71
2020/12/14 04:25:26;;;;;;;12.00;6.13;;;2.00;99.90;;;;;;4382750;32;20207;-71
2020/12/14 04:27:53;;;;;;;11.87;5.83;;;2.00;99.90;;;;;;4371207;32;20167;-71
2020/12/14 04:30:19;;;;;;;11.13;5.70;;;1.90;99.90;;;;;;4392918;32;20147;-71
2020/12/14 04:32:46;;;;;;;12.13;6.13;;;2.00;99.90;;;;;;4387373;32;20400;-71
2020/12/14 04:35:12;;;;;;;11.73;5.90;;;2.00;99.90;;;;;;4390020;32;20220;-71
2020/12/14 04:37:39;;;;;;;12.73;6.70;;;2.00;99.90;;;;;;4391616;32;20147;-70
2020/12/14 04:40:05;;;;;;;13.73;6.40;;;2.10;99.90;;;;;;4384367;32;20159;-70
2020/12/14 04:42:32;;;;;;;12.43;6.70;;;2.10;99.90;;;;;;4393141;32;20206;-71
2020/12/14 04:44:59;;;;;;;13.77;6.40;;;2.10;99.90;;;;;;4380918;32;20155;-71
2020/12/14 04:47:27;;;;;;;14.00;7.00;;;2.00;99.90;;;;;;4387311;32;20529;-71
2020/12/14 04:49:55;;;;;;;15.37;7.07;;;2.10;99.90;;;;;;4394230;32;20176;-71
2020/12/14 04:52:24;;;;;;;13.10;6.33;;;2.10;99.90;;;;;;4382988;32;20170;-71
2020/12/14 04:54:50;;;;;;;14.63;6.70;;;2.00;99.90;;;;;;4393637;32;20152;-71
2020/12/14 04:57:22;;;;;;;13.43;6.90;;;2.10;99.90;;;;;;4385814;32;20147;-71
2020/12/14 04:59:52;;;;;;;14.93;7.53;;;2.10;99.90;;;;;;4383970;32;20156;-70
2020/12/14 05:02:18;;;;;;;13.20;7.07;;;2.10;99.90;;;;;;4380395;32;20166;-72
2020/12/14 05:04:45;;;;;;;16.40;7.60;;;2.10;99.90;;;;;;4370517;32;20182;-71
2020/12/14 05:07:12;;;;;;;16.50;7.80;;;2.00;99.90;;;;;;4373369;32;20206;-71
2020/12/14 05:09:43;;;;;;;13.50;6.53;;;2.10;99.90;;;;;;4376856;32;20246;-71
2020/12/14 05:12:20;;;;;;;15.07;6.97;;;2.10;99.90;;;;;;4381166;32;20564;-71
2020/12/14 05:14:46;;;;;;;15.10;7.00;;;2.10;99.90;;;;;;4371749;32;20172;-71
2020/12/14 05:17:23;;;;;;;15.20;7.40;;;2.00;99.90;;;;;;4373783;32;20148;-70
2020/12/14 05:19:51;;;;;;;14.17;6.80;;;2.10;99.90;;;;;;4378614;32;20551;-70
2020/12/14 05:22:18;;;;;;;14.77;7.57;;;2.10;99.90;;;;;;4379572;32;20152;-71
2020/12/14 05:24:50;;;;;;;15.53;7.47;;;2.10;99.90;;;;;;4370250;32;20194;-72
2020/12/14 05:27:32;;;;;;;14.27;7.10;;;2.10;99.90;;;;;;4380483;32;20182;-73
2020/12/14 05:29:59;;;;;;;13.30;6.57;;;2.10;99.90;;;;;;4368413;32;20168;-73
2020/12/14 05:32:26;;;;;;;15.83;7.30;;;2.10;99.90;;;;;;4369268;32;20148;-72
2020/12/14 05:34:53;;;;;;;13.90;6.90;;;2.10;99.90;;;;;;4375713;32;20163;-71
2020/12/14 05:37:19;;;;;;;15.73;7.60;;;2.10;99.90;;;;;;4373410;32;20250;-71
2020/12/14 05:39:46;;;;;;;15.23;7.63;;;2.10;99.90;;;;;;4380237;32;20137;-72
2020/12/14 05:42:16;;;;;;;17.43;7.87;;;2.20;99.90;;;;;;4369343;32;20178;-71
2020/12/14 05:44:45;;;;;;;14.47;7.40;;;2.10;99.90;;;;;;4375792;32;20164;-72
2020/12/14 05:47:24;;;;;;;15.90;7.50;;;2.10;99.90;;;;;;4380004;32;20179;-72
2020/12/14 05:49:52;;;;;;;17.50;7.70;;;2.10;99.90;;;;;;4383397;32;20484;-72
2020/12/14 05:52:20;;;;;;;14.33;7.17;;;2.10;99.90;;;;;;4379259;32;20190;-72
2020/12/14 05:54:59;;;;;;;14.73;7.70;;;2.10;99.90;;;;;;4380183;32;20443;-71
2020/12/14 05:57:36;;;;;;;15.00;7.73;;;2.10;99.90;;;;;;4380557;32;20186;-71
2020/12/14 06:00:11;;;;;;;14.87;7.60;;;1.80;99.90;;;;;;4380247;32;20187;-69
2020/12/14 06:02:38;;;;;;;16.30;7.67;;;1.80;99.90;;;;;;4381347;32;20426;-70
2020/12/14 06:05:06;;;;;;;17.13;7.63;;;1.80;99.90;;;;;;4379721;32;20194;-70
2020/12/14 06:07:33;;;;;;;16.07;7.73;;;1.90;99.90;;;;;;4381642;32;20131;-70
2020/12/14 06:10:04;;;;;;;12.77;7.20;;;1.90;99.90;;;;;;4380091;32;20203;-70
2020/12/14 06:12:31;;;;;;;15.87;7.10;;;2.00;99.90;;;;;;4380113;32;20182;-71
2020/12/14 06:15:06;;;;;;;15.67;7.60;;;2.00;99.90;;;;;;4379012;32;20443;-71
2020/12/14 06:17:34;;;;;;;17.70;7.67;;;2.10;99.90;;;;;;4381409;32;20147;-72
2020/12/14 06:20:23;;;;;;;16.47;7.67;;;2.10;99.90;;;;;;4389542;32;20480;-71
2020/12/14 06:23:03;;;;;;;14.67;6.90;;;2.00;99.90;;;;;;4394857;32;20144;-71
2020/12/14 06:25:30;;;;;;;15.93;7.47;;;2.00;99.90;;;;;;4392480;32;20156;-71
2020/12/14 06:28:17;;;;;;;16.93;8.23;;;1.80;99.90;;;;;;4381053;32;20155;-70
2020/12/14 06:30:52;;;;;;;15.60;7.50;;;1.90;99.90;;;;;;4380331;32;20152;-70
2020/12/14 06:33:32;;;;;;;11.13;6.37;;;1.90;99.90;;;;;;4379674;32;20200;-70
2020/12/14 06:36:16;;;;;;;14.63;6.87;;;1.90;99.90;;;;;;4379486;32;20167;-71
2020/12/14 06:38:43;;;;;;;12.07;6.00;;;1.90;99.90;;;;;;4379707;32;20527;-72
2020/12/14 06:41:26;;;;;;;17.00;6.90;;;1.90;99.90;;;;;;4379444;32;20429;-71
2020/12/14 06:44:06;;;;;;;18.37;7.70;;;2.00;99.90;;;;;;4379700;32;20214;-71
2020/12/14 06:46:35;;;;;;;14.10;7.50;;;1.90;99.90;;;;;;4379787;32;20402;-71
2020/12/14 06:49:02;;;;;;;15.27;7.40;;;1.90;99.90;;;;;;4379516;32;20431;-71
2020/12/14 06:51:52;;;;;;;17.63;8.20;;;2.00;99.90;;;;;;4379933;32;20195;-72
2020/12/14 06:54:41;;;;;;;17.37;8.33;;;2.00;99.90;;;;;;4379440;32;20182;-72
2020/12/14 06:57:17;;;;;;;17.63;7.97;;;2.10;99.90;;;;;;4380664;32;20475;-70
2020/12/14 06:59:54;;;;;;;14.90;7.83;;;2.10;99.90;;;;;;4379352;32;20202;-70
2020/12/14 07:02:37;;;;;;;15.50;8.10;;;2.20;99.90;;;;;;4379245;32;20397;-72
2020/12/14 07:05:24;;;;;;;15.23;7.00;;;2.20;99.90;;;;;;4380665;32;20137;-72
2020/12/14 07:07:54;;;;;;;14.70;7.43;;;2.20;99.90;;;;;;4379989;32;20147;-76
2020/12/14 07:10:28;;;;;;;14.83;7.53;;;2.20;99.90;;;;;;4379173;32;20508;-71
2020/12/14 07:12:55;;;;;;;15.73;7.40;;;2.20;99.90;;;;;;4379899;32;20164;-72
2020/12/14 07:15:35;;;;;;;16.27;8.10;;;2.30;99.90;;;;;;4380532;32;20158;-72
2020/12/14 07:18:03;;;;;;;13.37;7.43;;;2.20;99.90;;;;;;4380475;32;20238;-72
2020/12/14 07:20:29;;;;;;;14.77;7.30;;;2.20;99.90;;;;;;4379036;32;20166;-73
2020/12/14 07:23:03;;;;;;;13.50;6.87;;;2.30;99.90;;;;;;4379194;32;20136;-73
2020/12/14 07:25:31;;;;;;;14.67;7.77;;;2.20;99.90;;;;;;4378452;32;20375;-73
2020/12/14 07:27:58;;;;;;;11.27;6.03;;;2.20;99.90;;;;;;4380382;32;20191;-72
2020/12/14 07:30:24;;;;;;;11.30;6.30;;;2.10;99.90;;;;;;4379051;32;20437;-73
2020/12/14 07:32:51;;;;;;;16.87;7.90;;;2.10;99.90;;;;;;4379974;32;20198;-73
2020/12/14 07:35:18;;;;;;;17.20;8.13;;;2.00;99.90;;;;;;4378782;32;20148;-71
2020/12/14 07:37:51;;;;;;;17.83;8.07;;;1.90;99.90;;;;;;4379021;32;20167;-72
2020/12/14 07:40:17;;;;;;;16.93;8.13;;;2.00;99.90;;;;;;4379867;32;20147;-72
2020/12/14 07:42:44;;;;;;;16.43;8.80;;;2.00;99.90;;;;;;4378870;32;20439;-72
2020/12/14 07:45:21;;;;;;;17.67;8.27;;;2.00;99.90;;;;;;4378358;32;20140;-72
2020/12/14 07:47:53;;;;;;;16.77;8.00;;;2.00;99.90;;;;;;4379530;32;20455;-72
2020/12/14 07:50:25;;;;;;;18.87;7.87;;;2.10;99.90;;;;;;4378937;32;20206;-72
2020/12/14 07:52:54;;;;;;;17.60;8.00;;;2.10;99.90;;;;;;4379320;32;20456;-72
2020/12/14 07:55:26;;;;;;;15.47;7.67;;;2.20;99.90;;;;;;4380241;32;20172;-73
2020/12/14 07:57:55;;;;;;;12.83;6.50;;;2.30;99.90;;;;;;4380395;32;20186;-71
2020/12/14 08:00:23;;;;;;;15.10;7.20;;;2.20;99.90;;;;;;4380491;32;20170;-72
2020/12/14 08:02:51;;;;;;;13.40;7.60;;;2.20;99.90;;;;;;4378763;32;20132;-72
2020/12/14 08:05:19;;;;;;;15.80;7.83;;;2.30;99.90;;;;;;4373207;32;20136;-72
2020/12/14 08:07:48;;;;;;;19.37;8.57;;;2.10;99.90;;;;;;4364926;32;20171;-72
2020/12/14 08:10:32;;;;;;;21.33;8.33;;;2.00;99.90;;;;;;4379913;32;20397;-72
2020/12/14 08:13:02;;;;;;;19.43;8.43;;;2.00;99.90;;;;;;4378753;32;20155;-73
2020/12/14 08:15:30;;;;;;;16.97;7.80;;;2.10;99.90;;;;;;4380149;32;20209;-71
2020/12/14 08:17:59;;;;;;;14.90;7.90;;;2.20;99.90;;;;;;4378715;32;20144;-72
2020/12/14 08:20:33;;;;;;;16.13;7.83;;;2.20;99.90;;;;;;4380076;32;20182;-72
2020/12/14 08:23:01;;;;;;;16.40;8.20;;;2.30;99.90;;;;;;4378857;32;20148;-72
2020/12/14 08:25:31;;;;;;;16.70;8.30;;;2.30;99.90;;;;;;4380193;32;20178;-72
2020/12/14 08:28:00;;;;;;;15.37;7.77;;;2.30;99.90;;;;;;4379292;32;20144;-71
2020/12/14 08:30:27;;;;;;;17.53;8.07;;;2.30;99.90;;;;;;4378801;32;20140;-72
2020/12/14 08:33:13;;;;;;;18.63;8.47;;;2.30;99.90;;;;;;4378481;32;20195;-72
2020/12/14 08:35:44;;;;;;;16.83;7.77;;;2.20;99.90;;;;;;4378860;32;20455;-72
2020/12/14 08:38:22;;;;;;;18.57;8.30;;;2.20;99.90;;;;;;4380153;32;20209;-72
2020/12/14 08:41:01;;;;;;;18.10;8.20;;;2.30;99.90;;;;;;4378328;32;20135;-72
2020/12/14 08:43:28;;;;;;;18.93;8.57;;;2.30;99.90;;;;;;4378885;32;20183;-72
2020/12/14 08:46:09;;;;;;;18.13;8.60;;;2.30;99.90;;;;;;4379883;32;20140;-73
2020/12/14 08:48:41;;;;;;;18.80;8.73;;;2.30;99.90;;;;;;4378364;32;20386;-74
2020/12/14 08:51:12;;;;;;;15.40;7.53;;;2.30;99.90;;;;;;4378739;32;20152;-72
2020/12/14 08:53:44;;;;;;;16.30;8.10;;;2.30;99.90;;;;;;4382686;32;20235;-70
2020/12/14 08:56:14;;;;;;;17.40;8.20;;;2.40;99.90;;;;;;4382551;32;20179;-71
2020/12/14 08:58:57;;;;;;;17.47;8.57;;;2.40;99.90;;;;;;4382458;32;20190;-73
2020/12/14 09:01:29;;;;;;;17.43;7.77;;;2.40;99.90;;;;;;4382399;32;20151;-72
2020/12/14 09:03:57;;;;;;;15.90;7.87;;;2.50;99.90;;;;;;4382822;32;20140;-71
2020/12/14 09:06:35;;;;;;;14.13;7.50;;;2.60;99.90;;;;;;4380484;32;20159;-71
2020/12/14 09:09:08;;;;;;;16.60;8.03;;;2.50;99.90;;;;;;4381597;32;20183;-72
2020/12/14 09:11:49;;;;;;;15.20;7.57;;;2.50;99.90;;;;;;4382353;32;20143;-71
2020/12/14 09:14:20;;;;;;;14.53;7.47;;;2.40;99.90;;;;;;4380786;32;20186;-72
2020/12/14 09:16:49;;;;;;;18.63;8.07;;;2.20;99.90;;;;;;4380628;32;20202;-72
2020/12/14 09:19:23;;;;;;;14.23;7.73;;;2.20;99.90;;;;;;4380883;32;20212;-71
2020/12/14 09:21:50;;;;;;;14.47;7.33;;;2.30;99.90;;;;;;4380744;32;20165;-72
2020/12/14 09:24:19;;;;;;;15.43;7.67;;;2.20;99.90;;;;;;4380768;32;20185;-72
2020/12/14 09:26:47;;;;;;;17.30;7.97;;;2.20;99.90;;;;;;4382130;32;20147;-73
2020/12/14 09:29:15;;;;;;;18.07;8.60;;;2.20;99.90;;;;;;4381922;32;20148;-73
2020/12/14 09:31:53;;;;;;;17.73;8.63;;;2.20;99.90;;;;;;4380525;32;20183;-73
2020/12/14 09:34:21;;;;;;;16.53;8.43;;;2.40;99.90;;;;;;4380630;32;20140;-73
2020/12/14 09:36:58;;;;;;;12.97;7.00;;;2.30;99.90;;;;;;4380963;32;20210;-71
2020/12/14 09:39:26;;;;;;;18.03;8.57;;;2.30;99.90;;;;;;4381917;32;20151;-72
2020/12/14 09:41:55;;;;;;;17.30;8.50;;;2.40;99.90;;;;;;4381731;32;20152;-73
2020/12/14 09:44:23;;;;;;;16.47;8.53;;;2.50;99.90;;;;;;4380491;32;20221;-73
2020/12/14 09:46:49;;;;;;;16.40;8.40;;;2.60;99.90;;;;;;4380388;32;20182;-73
2020/12/14 09:49:16;;;;;;;17.10;8.77;;;2.70;99.90;;;;;;4380763;32;20148;-73
2020/12/14 09:51:43;;;;;;;19.20;9.57;;;2.70;99.90;;;;;;4380391;32;20465;-72
2020/12/14 09:54:10;;;;;;;18.27;8.93;;;2.50;99.90;;;;;;4380275;32;20144;-73
2020/12/14 09:56:37;;;;;;;17.80;8.83;;;2.70;99.90;;;;;;4368304;32;20183;-72
2020/12/14 09:59:04;;;;;;;18.27;8.80;;;2.70;99.90;;;;;;4376003;32;20171;-72
2020/12/14 10:01:31;;;;;;;18.07;8.90;;;2.70;99.90;;;;;;4367318;32;20151;-70
2020/12/14 10:03:58;;;;;;;18.97;8.73;;;2.70;99.90;;;;;;4367569;32;20215;-72
2020/12/14 10:06:26;;;;;;;16.23;8.13;;;2.80;99.90;;;;;;4374999;32;20491;-72
2020/12/14 10:08:54;;;;;;;18.40;8.80;;;2.80;99.90;;;;;;4374758;32;20468;-72
2020/12/14 10:11:25;;;;;;;16.73;8.67;;;2.70;99.90;;;;;;4379750;32;20213;-72
2020/12/14 10:13:52;;;;;;;18.60;9.33;;;2.70;99.90;;;;;;4367784;32;20214;-74
2020/12/14 10:16:19;;;;;;;18.47;8.80;;;2.80;99.90;;;;;;4373224;32;20189;-73
2020/12/14 10:18:46;;;;;;;16.30;7.87;;;2.70;99.90;;;;;;4371908;32;20148;-73
2020/12/14 10:21:14;;;;;;;15.40;8.27;;;2.70;99.90;;;;;;4376825;32;20182;-73
2020/12/14 10:23:41;;;;;;;19.43;8.73;;;2.70;99.90;;;;;;4378397;32;20239;-74
2020/12/14 10:26:13;;;;;;;13.20;7.10;;;2.60;99.90;;;;;;4368468;32;20163;-73
2020/12/14 10:28:40;;;;;;;16.40;8.00;;;2.50;99.90;;;;;;4379415;32;20190;-74
2020/12/14 10:31:09;;;;;;;18.27;9.10;;;2.40;99.90;;;;;;4369522;32;20178;-74
2020/12/14 10:33:37;;;;;;;15.83;7.90;;;2.40;99.90;;;;;;4377402;32;20156;-73
2020/12/14 10:36:08;;;;;;;18.70;8.87;;;2.40;99.90;;;;;;4375876;32;20187;-71
2020/12/14 10:38:35;;;;;;;17.60;8.63;;;2.50;99.90;;;;;;4372383;32;20155;-72
2020/12/14 10:41:01;;;;;;;16.93;8.90;;;2.60;99.90;;;;;;4370327;32;20543;-74
2020/12/14 10:43:28;;;;;;;18.07;8.73;;;2.60;99.90;;;;;;4376414;32;20464;-75
2020/12/14 10:45:56;;;;;;;18.90;8.90;;;2.60;99.90;;;;;;4377781;32;20203;-76
2020/12/14 10:48:23;;;;;;;18.93;8.97;;;2.60;99.90;;;;;;4369657;32;20474;-75
2020/12/14 10:50:49;;;;;;;19.90;8.83;;;2.60;99.90;;;;;;4379242;32;20170;-73
2020/12/14 10:53:16;;;;;;;18.63;9.10;;;2.60;99.90;;;;;;4368329;32;20215;-76
2020/12/14 10:55:42;;;;;;;16.70;8.57;;;2.60;99.90;;;;;;4377745;32;20524;-76
2020/12/14 10:58:09;;;;;;;19.87;9.13;;;2.60;99.90;;;;;;4375658;32;20160;-76
2020/12/14 11:00:35;;;;;;;16.83;8.70;;;2.70;99.90;;;;;;4370894;32;20152;-75
2020/12/14 11:03:03;;;;;;;21.80;9.43;;;2.70;99.90;;;;;;4371050;32;20226;-74
2020/12/14 11:05:30;;;;;;;16.77;8.80;;;2.80;99.90;;;;;;4376450;32;20447;-74
2020/12/14 11:07:56;;;;;;;15.80;8.33;;;2.90;99.90;;;;;;4368277;32;20482;-72
2020/12/14 11:10:23;;;;;;;18.00;9.50;;;2.80;99.90;;;;;;4373617;32;20226;-73
2020/12/14 11:12:49;;;;;;;18.77;9.10;;;2.90;99.90;;;;;;4371984;32;20407;-74
2020/12/14 11:15:16;;;;;;;16.83;8.47;;;2.90;99.90;;;;;;4378535;32;20455;-73
2020/12/14 11:17:43;;;;;;;16.30;8.80;;;3.00;99.90;;;;;;4366490;32;20419;-73
2020/12/14 11:20:12;;;;;;;17.07;8.93;;;3.00;99.90;;;;;;4374737;32;20490;-73
2020/12/14 11:22:39;;;;;;;20.07;9.70;;;3.00;99.90;;;;;;4371169;32;20517;-75
2020/12/14 11:25:07;;;;;;;17.57;9.43;;;3.10;99.90;;;;;;4369891;32;20170;-73
2020/12/14 11:27:33;;;;;;;19.03;10.40;;;3.20;99.90;;;;;;4376830;32;20407;-73
2020/12/14 11:30:00;;;;;;;20.80;10.40;;;3.10;99.90;;;;;;4377179;32;20573;-75
2020/12/14 11:32:28;;;;;;;19.03;9.57;;;2.90;99.90;;;;;;4369956;32;20553;-75
2020/12/14 11:34:55;;;;;;;22.53;10.80;;;3.00;99.90;;;;;;4378065;32;20148;-74
2020/12/14 11:37:21;;;;;;;22.10;11.83;;;3.00;99.90;;;;;;4368724;32;20144;-74
2020/12/14 11:39:48;;;;;;;22.43;10.83;;;3.10;99.90;;;;;;4377837;32;20414;-75
2020/12/14 11:42:15;;;;;;;22.10;11.00;;;3.20;99.90;;;;;;4375623;32;20544;-76
2020/12/14 11:44:41;;;;;;;20.53;11.20;;;3.20;99.90;;;;;;4371183;32;20202;-75
2020/12/14 11:47:08;;;;;;;22.67;11.33;;;3.30;99.90;;;;;;4378742;32;20152;-74
2020/12/14 11:49:35;;;;;;;19.77;10.40;;;3.10;99.90;;;;;;4366329;32;20560;-73
2020/12/14 11:52:01;;;;;;;21.13;10.77;;;3.00;99.90;;;;;;4375379;32;20172;-72
2020/12/14 11:54:30;;;;;;;22.80;11.20;;;2.90;99.90;;;;;;4370661;32;20242;-73
2020/12/14 11:56:57;;;;;;;20.43;10.40;;;2.90;99.90;;;;;;4378438;32;20148;-72
2020/12/14 11:59:23;;;;;;;23.50;11.10;;;2.70;99.90;;;;;;4367077;32;20148;-73
2020/12/14 12:01:53;;;;;;;23.73;10.70;;;2.70;99.90;;;;;;4376016;32;20149;-74
2020/12/14 12:04:19;;;;;;;20.50;10.50;;;2.70;99.90;;;;;;4368578;32;20175;-74
2020/12/14 12:06:46;;;;;;;21.30;11.10;;;2.60;99.90;;;;;;4378452;32;20584;-73
2020/12/14 12:09:29;;;;;;;22.20;11.10;;;2.60;99.90;;;;;;4367624;32;20214;-73
2020/12/14 12:11:55;;;;;;;21.37;11.27;;;2.60;99.90;;;;;;4375508;32;20170;-72
2020/12/14 12:14:22;;;;;;;20.73;11.23;;;2.70;99.90;;;;;;4368591;32;20191;-71
2020/12/14 12:16:48;;;;;;;22.90;11.67;;;2.70;99.90;;;;;;4378031;32;20160;-73
2020/12/14 12:19:17;;;;;;;23.60;11.20;;;2.70;99.90;;;;;;4367424;32;20239;-71
2020/12/14 12:21:47;;;;;;;24.23;11.93;;;2.80;99.90;;;;;;4376879;32;20174;-72
2020/12/14 12:24:14;;;;;;;23.93;11.40;;;2.80;99.90;;;;;;4374288;32;20517;-72
2020/12/14 12:26:41;;;;;;;23.03;11.87;;;2.90;99.90;;;;;;4372667;32;20206;-73
2020/12/14 12:29:07;;;;;;;23.20;11.20;;;2.80;99.90;;;;;;4380924;32;20516;-72
2020/12/14 12:31:34;;;;;;;24.80;12.00;;;2.80;99.90;;;;;;4370139;32;20148;-73
2020/12/14 12:34:00;;;;;;;24.67;12.23;;;2.90;99.90;;;;;;4379683;32;20172;-73
2020/12/14 12:36:27;;;;;;;24.23;11.80;;;2.90;99.90;;;;;;4371680;32;20153;-73
2020/12/14 12:38:53;;;;;;;21.03;11.10;;;2.90;99.90;;;;;;4380748;32;20378;-73
2020/12/14 12:41:20;;;;;;;23.90;11.73;;;2.90;99.90;;;;;;4369694;32;20144;-72
2020/12/14 12:43:46;;;;;;;21.73;11.10;;;3.00;99.90;;;;;;4378318;32;20486;-73
2020/12/14 12:46:13;;;;;;;23.63;12.40;;;2.80;99.90;;;;;;4369784;32;20190;-72
2020/12/14 12:48:39;;;;;;;22.80;12.00;;;2.90;99.90;;;;;;4382233;32;20462;-73
2020/12/14 12:51:09;;;;;;;22.60;11.80;;;2.80;99.90;;;;;;4371057;32;20152;-71
2020/12/14 12:53:35;;;;;;;25.27;12.07;;;2.90;99.90;;;;;;4378783;32;20210;-71